sensor_id;sensor_type;location;lat;lon;timestamp;P1;durP1;ratioP1;P2;durP2;ratioP2
42832;SDS011;64089;51.478;5.692;2023-02-28T00:00:33;10.27;;;5.53;;
42832;SDS011;64089;51.478;5.692;2023-02-28T00:02:59;8.77;;;5.05;;
42832;SDS011;64089;51.478;5.692;2023-02-28T00:05:25;7.57;;;4.47;;
42832;SDS011;64089;51.478;5.692;2023-02-28T00:07:51;12.70;;;4.60;;
42832;SDS011;64089;51.478;5.692;2023-02-28T00:10:19;11.98;;;5.10;;
42832;SDS011;64089;51.478;5.692;2023-02-28T00:12:59;8.60;;;4.90;;
42832;SDS011;64089;51.478;5.692;2023-02-28T00:15:27;12.07;;;5.05;;
42832;SDS011;64089;51.478;5.692;2023-02-28T00:17:53;12.25;;;4.75;;
42832;SDS011;64089;51.478;5.692;2023-02-28T00:20:22;12.32;;;6.05;;
42832;SDS011;64089;51.478;5.692;2023-02-28T00:22:49;12.95;;;5.55;;
42832;SDS011;64089;51.478;5.692;2023-02-28T00:25:17;9.75;;;5.25;;
42832;SDS011;64089;51.478;5.692;2023-02-28T00:27:44;13.25;;;4.70;;
42832;SDS011;64089;51.478;5.692;2023-02-28T00:30:12;11.40;;;5.43;;
42832;SDS011;64089;51.478;5.692;2023-02-28T00:32:39;11.43;;;4.75;;
42832;SDS011;64089;51.478;5.692;2023-02-28T00:35:05;12.80;;;5.85;;
42832;SDS011;64089;51.478;5.692;2023-02-28T00:37:31;9.25;;;5.25;;
42832;SDS011;64089;51.478;5.692;2023-02-28T00:39:57;10.57;;;5.57;;
42832;SDS011;64089;51.478;5.692;2023-02-28T00:42:23;16.88;;;5.70;;
42832;SDS011;64089;51.478;5.692;2023-02-28T00:44:49;12.30;;;6.32;;
42832;SDS011;64089;51.478;5.692;2023-02-28T00:47:15;11.35;;;5.22;;
42832;SDS011;64089;51.478;5.692;2023-02-28T00:49:41;13.23;;;5.63;;
42832;SDS011;64089;51.478;5.692;2023-02-28T00:52:06;9.68;;;5.55;;
42832;SDS011;64089;51.478;5.692;2023-02-28T00:54:32;10.60;;;5.65;;
42832;SDS011;64089;51.478;5.692;2023-02-28T00:56:59;9.60;;;5.07;;
42832;SDS011;64089;51.478;5.692;2023-02-28T00:59:24;17.23;;;5.60;;
42832;SDS011;64089;51.478;5.692;2023-02-28T01:01:50;10.85;;;5.30;;
42832;SDS011;64089;51.478;5.692;2023-02-28T01:04:16;10.43;;;5.05;;
42832;SDS011;64089;51.478;5.692;2023-02-28T01:06:42;9.07;;;5.15;;
42832;SDS011;64089;51.478;5.692;2023-02-28T01:09:08;11.43;;;5.68;;
42832;SDS011;64089;51.478;5.692;2023-02-28T01:11:34;7.97;;;5.05;;
42832;SDS011;64089;51.478;5.692;2023-02-28T01:14:00;11.75;;;6.00;;
42832;SDS011;64089;51.478;5.692;2023-02-28T01:16:26;9.57;;;5.43;;
42832;SDS011;64089;51.478;5.692;2023-02-28T01:18:52;9.02;;;5.25;;
42832;SDS011;64089;51.478;5.692;2023-02-28T01:21:19;12.65;;;5.50;;
42832;SDS011;64089;51.478;5.692;2023-02-28T01:23:46;9.80;;;5.68;;
42832;SDS011;64089;51.478;5.692;2023-02-28T01:26:13;15.13;;;5.60;;
42832;SDS011;64089;51.478;5.692;2023-02-28T01:28:41;12.75;;;6.60;;
42832;SDS011;64089;51.478;5.692;2023-02-28T01:31:06;14.13;;;6.03;;
42832;SDS011;64089;51.478;5.692;2023-02-28T01:33:32;21.42;;;6.10;;
42832;SDS011;64089;51.478;5.692;2023-02-28T01:36:02;12.95;;;4.82;;
42832;SDS011;64089;51.478;5.692;2023-02-28T01:38:35;13.88;;;6.32;;
42832;SDS011;64089;51.478;5.692;2023-02-28T01:41:01;15.82;;;5.82;;
42832;SDS011;64089;51.478;5.692;2023-02-28T01:43:32;14.50;;;6.85;;
42832;SDS011;64089;51.478;5.692;2023-02-28T01:46:17;9.80;;;5.55;;
42832;SDS011;64089;51.478;5.692;2023-02-28T01:48:51;12.98;;;6.18;;
42832;SDS011;64089;51.478;5.692;2023-02-28T01:51:22;10.27;;;5.65;;
42832;SDS011;64089;51.478;5.692;2023-02-28T01:53:56;10.18;;;5.45;;
42832;SDS011;64089;51.478;5.692;2023-02-28T01:56:28;13.20;;;5.95;;
42832;SDS011;64089;51.478;5.692;2023-02-28T01:58:57;13.30;;;6.20;;
42832;SDS011;64089;51.478;5.692;2023-02-28T02:01:23;13.77;;;5.93;;
42832;SDS011;64089;51.478;5.692;2023-02-28T02:03:52;12.73;;;5.93;;
42832;SDS011;64089;51.478;5.692;2023-02-28T02:06:24;12.30;;;6.00;;
42832;SDS011;64089;51.478;5.692;2023-02-28T02:08:53;12.93;;;5.50;;
42832;SDS011;64089;51.478;5.692;2023-02-28T02:11:19;16.10;;;6.10;;
42832;SDS011;64089;51.478;5.692;2023-02-28T02:16:35;9.60;;;5.57;;
42832;SDS011;64089;51.478;5.692;2023-02-28T02:24:47;13.98;;;5.82;;
42832;SDS011;64089;51.478;5.692;2023-02-28T02:33:05;15.23;;;5.85;;
42832;SDS011;64089;51.478;5.692;2023-02-28T02:35:35;9.05;;;5.15;;
42832;SDS011;64089;51.478;5.692;2023-02-28T02:38:18;10.80;;;5.60;;
42832;SDS011;64089;51.478;5.692;2023-02-28T02:46:58;10.60;;;5.13;;
42832;SDS011;64089;51.478;5.692;2023-02-28T02:49:00;15.05;;;5.32;;
42832;SDS011;64089;51.478;5.692;2023-02-28T02:51:34;11.82;;;5.70;;
42832;SDS011;64089;51.478;5.692;2023-02-28T02:54:17;11.95;;;5.10;;
42832;SDS011;64089;51.478;5.692;2023-02-28T02:56:48;10.82;;;5.25;;
42832;SDS011;64089;51.478;5.692;2023-02-28T02:59:21;10.52;;;5.53;;
42832;SDS011;64089;51.478;5.692;2023-02-28T03:01:53;13.70;;;5.97;;
42832;SDS011;64089;51.478;5.692;2023-02-28T03:04:23;10.18;;;6.22;;
42832;SDS011;64089;51.478;5.692;2023-02-28T03:06:53;11.10;;;5.85;;
42832;SDS011;64089;51.478;5.692;2023-02-28T03:09:22;11.65;;;5.68;;
42832;SDS011;64089;51.478;5.692;2023-02-28T03:11:48;10.18;;;5.20;;
42832;SDS011;64089;51.478;5.692;2023-02-28T03:14:19;16.73;;;6.38;;
42832;SDS011;64089;51.478;5.692;2023-02-28T03:28:37;11.75;;;5.30;;
42832;SDS011;64089;51.478;5.692;2023-02-28T03:33:38;16.00;;;5.55;;
42832;SDS011;64089;51.478;5.692;2023-02-28T03:36:10;11.45;;;5.13;;
42832;SDS011;64089;51.478;5.692;2023-02-28T03:38:41;9.95;;;5.00;;
42832;SDS011;64089;51.478;5.692;2023-02-28T03:41:22;9.93;;;4.88;;
42832;SDS011;64089;51.478;5.692;2023-02-28T03:43:53;13.55;;;4.85;;
42832;SDS011;64089;51.478;5.692;2023-02-28T03:46:23;10.13;;;4.50;;
42832;SDS011;64089;51.478;5.692;2023-02-28T03:48:57;9.10;;;4.57;;
42832;SDS011;64089;51.478;5.692;2023-02-28T03:51:32;7.85;;;4.50;;
42832;SDS011;64089;51.478;5.692;2023-02-28T03:54:06;9.90;;;4.88;;
42832;SDS011;64089;51.478;5.692;2023-02-28T03:56:40;10.75;;;4.55;;
42832;SDS011;64089;51.478;5.692;2023-02-28T03:59:13;9.02;;;4.80;;
42832;SDS011;64089;51.478;5.692;2023-02-28T04:01:44;14.85;;;4.85;;
42832;SDS011;64089;51.478;5.692;2023-02-28T04:04:12;9.93;;;4.57;;
42832;SDS011;64089;51.478;5.692;2023-02-28T04:06:39;8.55;;;4.18;;
42832;SDS011;64089;51.478;5.692;2023-02-28T04:09:06;11.68;;;4.50;;
42832;SDS011;64089;51.478;5.692;2023-02-28T04:11:34;11.35;;;4.95;;
42832;SDS011;64089;51.478;5.692;2023-02-28T04:14:03;7.60;;;4.30;;
42832;SDS011;64089;51.478;5.692;2023-02-28T04:16:30;9.13;;;4.03;;
42832;SDS011;64089;51.478;5.692;2023-02-28T04:18:56;13.15;;;4.72;;
42832;SDS011;64089;51.478;5.692;2023-02-28T04:21:27;10.20;;;4.20;;
42832;SDS011;64089;51.478;5.692;2023-02-28T04:23:57;8.18;;;4.22;;
42832;SDS011;64089;51.478;5.692;2023-02-28T04:26:32;7.10;;;3.85;;
42832;SDS011;64089;51.478;5.692;2023-02-28T04:28:59;7.15;;;4.28;;
42832;SDS011;64089;51.478;5.692;2023-02-28T04:31:25;9.60;;;3.80;;
42832;SDS011;64089;51.478;5.692;2023-02-28T04:33:51;6.32;;;3.90;;
42832;SDS011;64089;51.478;5.692;2023-02-28T04:36:17;7.50;;;3.88;;
42832;SDS011;64089;51.478;5.692;2023-02-28T04:38:43;9.90;;;4.28;;
42832;SDS011;64089;51.478;5.692;2023-02-28T04:41:09;8.98;;;4.57;;
42832;SDS011;64089;51.478;5.692;2023-02-28T04:43:35;11.68;;;4.97;;
42832;SDS011;64089;51.478;5.692;2023-02-28T04:46:01;7.00;;;4.28;;
42832;SDS011;64089;51.478;5.692;2023-02-28T04:48:28;7.30;;;3.78;;
42832;SDS011;64089;51.478;5.692;2023-02-28T04:50:55;5.75;;;3.58;;
42832;SDS011;64089;51.478;5.692;2023-02-28T04:53:24;7.22;;;3.90;;
42832;SDS011;64089;51.478;5.692;2023-02-28T04:55:50;8.00;;;3.47;;
42832;SDS011;64089;51.478;5.692;2023-02-28T04:58:15;7.75;;;4.38;;
42832;SDS011;64089;51.478;5.692;2023-02-28T05:00:41;5.68;;;3.63;;
42832;SDS011;64089;51.478;5.692;2023-02-28T05:03:06;7.88;;;3.92;;
42832;SDS011;64089;51.478;5.692;2023-02-28T05:05:32;14.25;;;3.90;;
42832;SDS011;64089;51.478;5.692;2023-02-28T05:07:58;7.07;;;3.33;;
42832;SDS011;64089;51.478;5.692;2023-02-28T05:10:24;8.15;;;4.18;;
42832;SDS011;64089;51.478;5.692;2023-02-28T05:12:49;11.02;;;4.28;;
42832;SDS011;64089;51.478;5.692;2023-02-28T05:15:17;13.52;;;4.53;;
42832;SDS011;64089;51.478;5.692;2023-02-28T05:17:46;7.75;;;4.00;;
42832;SDS011;64089;51.478;5.692;2023-02-28T05:20:12;6.47;;;3.88;;
42832;SDS011;64089;51.478;5.692;2023-02-28T05:22:38;7.63;;;3.83;;
42832;SDS011;64089;51.478;5.692;2023-02-28T05:25:05;10.63;;;4.35;;
42832;SDS011;64089;51.478;5.692;2023-02-28T05:27:31;11.93;;;4.40;;
42832;SDS011;64089;51.478;5.692;2023-02-28T05:29:57;7.93;;;3.58;;
42832;SDS011;64089;51.478;5.692;2023-02-28T05:32:24;8.07;;;4.20;;
42832;SDS011;64089;51.478;5.692;2023-02-28T05:34:49;9.50;;;4.57;;
42832;SDS011;64089;51.478;5.692;2023-02-28T05:37:15;6.57;;;3.70;;
42832;SDS011;64089;51.478;5.692;2023-02-28T05:39:41;10.38;;;4.80;;
42832;SDS011;64089;51.478;5.692;2023-02-28T05:42:07;8.77;;;4.43;;
42832;SDS011;64089;51.478;5.692;2023-02-28T05:44:34;10.27;;;4.40;;
42832;SDS011;64089;51.478;5.692;2023-02-28T05:47:00;9.02;;;4.05;;
42832;SDS011;64089;51.478;5.692;2023-02-28T05:49:25;7.82;;;3.88;;
42832;SDS011;64089;51.478;5.692;2023-02-28T05:51:51;9.30;;;4.50;;
42832;SDS011;64089;51.478;5.692;2023-02-28T05:54:17;9.45;;;4.35;;
42832;SDS011;64089;51.478;5.692;2023-02-28T05:56:42;8.90;;;4.05;;
42832;SDS011;64089;51.478;5.692;2023-02-28T05:59:10;8.13;;;4.55;;
42832;SDS011;64089;51.478;5.692;2023-02-28T06:01:38;6.78;;;3.78;;
42832;SDS011;64089;51.478;5.692;2023-02-28T06:04:13;13.88;;;4.80;;
42832;SDS011;64089;51.478;5.692;2023-02-28T06:06:42;12.00;;;4.78;;
42832;SDS011;64089;51.478;5.692;2023-02-28T06:09:11;6.50;;;4.10;;
42832;SDS011;64089;51.478;5.692;2023-02-28T06:11:37;7.30;;;3.67;;
42832;SDS011;64089;51.478;5.692;2023-02-28T06:14:03;11.35;;;4.57;;
42832;SDS011;64089;51.478;5.692;2023-02-28T06:16:29;8.85;;;4.63;;
42832;SDS011;64089;51.478;5.692;2023-02-28T06:18:57;11.13;;;3.97;;
42832;SDS011;64089;51.478;5.692;2023-02-28T06:21:23;6.40;;;3.78;;
42832;SDS011;64089;51.478;5.692;2023-02-28T06:23:49;11.15;;;4.28;;
42832;SDS011;64089;51.478;5.692;2023-02-28T06:26:15;7.30;;;4.25;;
42832;SDS011;64089;51.478;5.692;2023-02-28T06:28:41;6.90;;;3.90;;
42832;SDS011;64089;51.478;5.692;2023-02-28T06:31:10;7.03;;;3.72;;
42832;SDS011;64089;51.478;5.692;2023-02-28T06:33:38;11.68;;;4.85;;
42832;SDS011;64089;51.478;5.692;2023-02-28T06:36:04;15.45;;;3.75;;
42832;SDS011;64089;51.478;5.692;2023-02-28T06:38:31;10.27;;;3.75;;
42832;SDS011;64089;51.478;5.692;2023-02-28T06:40:58;9.27;;;3.78;;
42832;SDS011;64089;51.478;5.692;2023-02-28T06:43:25;8.68;;;3.88;;
42832;SDS011;64089;51.478;5.692;2023-02-28T06:45:57;9.23;;;3.92;;
42832;SDS011;64089;51.478;5.692;2023-02-28T06:48:24;9.65;;;4.13;;
42832;SDS011;64089;51.478;5.692;2023-02-28T06:50:50;7.15;;;4.03;;
42832;SDS011;64089;51.478;5.692;2023-02-28T06:53:16;9.25;;;4.43;;
42832;SDS011;64089;51.478;5.692;2023-02-28T06:55:42;8.48;;;3.85;;
42832;SDS011;64089;51.478;5.692;2023-02-28T06:58:07;8.15;;;3.70;;
42832;SDS011;64089;51.478;5.692;2023-02-28T07:03:06;13.77;;;4.05;;
42832;SDS011;64089;51.478;5.692;2023-02-28T07:05:31;10.73;;;3.65;;
42832;SDS011;64089;51.478;5.692;2023-02-28T07:07:59;6.95;;;3.72;;
42832;SDS011;64089;51.478;5.692;2023-02-28T07:10:24;5.05;;;3.40;;
42832;SDS011;64089;51.478;5.692;2023-02-28T07:12:50;7.28;;;3.03;;
42832;SDS011;64089;51.478;5.692;2023-02-28T07:15:16;8.32;;;3.17;;
42832;SDS011;64089;51.478;5.692;2023-02-28T07:17:42;14.35;;;3.50;;
42832;SDS011;64089;51.478;5.692;2023-02-28T07:20:07;10.02;;;3.65;;
42832;SDS011;64089;51.478;5.692;2023-02-28T07:22:33;7.63;;;4.07;;
42832;SDS011;64089;51.478;5.692;2023-02-28T07:24:59;8.07;;;3.53;;
42832;SDS011;64089;51.478;5.692;2023-02-28T07:27:24;7.35;;;3.15;;
42832;SDS011;64089;51.478;5.692;2023-02-28T07:29:51;6.22;;;3.15;;
42832;SDS011;64089;51.478;5.692;2023-02-28T07:32:17;9.05;;;3.47;;
42832;SDS011;64089;51.478;5.692;2023-02-28T07:34:43;6.25;;;3.80;;
42832;SDS011;64089;51.478;5.692;2023-02-28T07:37:09;7.57;;;3.65;;
42832;SDS011;64089;51.478;5.692;2023-02-28T07:39:35;4.93;;;2.85;;
42832;SDS011;64089;51.478;5.692;2023-02-28T07:42:03;9.30;;;3.40;;
42832;SDS011;64089;51.478;5.692;2023-02-28T07:44:31;7.25;;;3.75;;
42832;SDS011;64089;51.478;5.692;2023-02-28T07:46:57;6.07;;;3.60;;
42832;SDS011;64089;51.478;5.692;2023-02-28T07:49:23;24.48;;;3.40;;
42832;SDS011;64089;51.478;5.692;2023-02-28T07:51:48;5.53;;;2.90;;
42832;SDS011;64089;51.478;5.692;2023-02-28T07:54:14;6.45;;;3.47;;
42832;SDS011;64089;51.478;5.692;2023-02-28T07:56:39;8.40;;;3.38;;
42832;SDS011;64089;51.478;5.692;2023-02-28T07:59:05;8.50;;;3.17;;
42832;SDS011;64089;51.478;5.692;2023-02-28T08:01:30;4.20;;;2.47;;
42832;SDS011;64089;51.478;5.692;2023-02-28T08:03:56;8.27;;;3.95;;
42832;SDS011;64089;51.478;5.692;2023-02-28T08:06:22;3.28;;;2.05;;
42832;SDS011;64089;51.478;5.692;2023-02-28T08:08:49;5.32;;;3.30;;
42832;SDS011;64089;51.478;5.692;2023-02-28T08:11:15;10.38;;;3.00;;
42832;SDS011;64089;51.478;5.692;2023-02-28T08:13:42;4.35;;;2.58;;
42832;SDS011;64089;51.478;5.692;2023-02-28T08:16:09;5.97;;;2.67;;
42832;SDS011;64089;51.478;5.692;2023-02-28T08:18:35;6.90;;;2.58;;
42832;SDS011;64089;51.478;5.692;2023-02-28T08:21:08;4.88;;;2.40;;
42832;SDS011;64089;51.478;5.692;2023-02-28T08:23:35;3.60;;;2.33;;
42832;SDS011;64089;51.478;5.692;2023-02-28T08:26:00;3.90;;;2.58;;
42832;SDS011;64089;51.478;5.692;2023-02-28T08:28:26;4.18;;;2.55;;
42832;SDS011;64089;51.478;5.692;2023-02-28T08:30:52;6.00;;;2.92;;
42832;SDS011;64089;51.478;5.692;2023-02-28T08:33:17;5.88;;;2.88;;
42832;SDS011;64089;51.478;5.692;2023-02-28T08:35:43;7.20;;;2.92;;
42832;SDS011;64089;51.478;5.692;2023-02-28T08:38:09;6.18;;;2.63;;
42832;SDS011;64089;51.478;5.692;2023-02-28T08:40:34;8.90;;;2.95;;
42832;SDS011;64089;51.478;5.692;2023-02-28T08:43:00;6.28;;;2.85;;
42832;SDS011;64089;51.478;5.692;2023-02-28T08:45:26;7.63;;;3.10;;
42832;SDS011;64089;51.478;5.692;2023-02-28T08:47:51;4.78;;;2.33;;
42832;SDS011;64089;51.478;5.692;2023-02-28T08:50:19;6.95;;;2.40;;
42832;SDS011;64089;51.478;5.692;2023-02-28T08:52:44;6.93;;;2.60;;
42832;SDS011;64089;51.478;5.692;2023-02-28T08:55:10;27.30;;;10.65;;
42832;SDS011;64089;51.478;5.692;2023-02-28T08:57:36;14.27;;;5.95;;
42832;SDS011;64089;51.478;5.692;2023-02-28T09:00:02;31.80;;;11.57;;
42832;SDS011;64089;51.478;5.692;2023-02-28T09:02:29;11.10;;;4.32;;
42832;SDS011;64089;51.478;5.692;2023-02-28T09:04:56;3.47;;;2.40;;
42832;SDS011;64089;51.478;5.692;2023-02-28T09:07:25;3.97;;;2.10;;
42832;SDS011;64089;51.478;5.692;2023-02-28T09:09:50;2.90;;;1.60;;
42832;SDS011;64089;51.478;5.692;2023-02-28T09:12:22;6.78;;;2.53;;
42832;SDS011;64089;51.478;5.692;2023-02-28T09:14:49;3.88;;;2.22;;
42832;SDS011;64089;51.478;5.692;2023-02-28T09:17:16;3.83;;;2.20;;
42832;SDS011;64089;51.478;5.692;2023-02-28T09:19:42;4.85;;;1.88;;
42832;SDS011;64089;51.478;5.692;2023-02-28T09:22:08;4.65;;;1.90;;
42832;SDS011;64089;51.478;5.692;2023-02-28T09:24:35;10.32;;;4.78;;
42832;SDS011;64089;51.478;5.692;2023-02-28T09:27:02;25.52;;;10.30;;
42832;SDS011;64089;51.478;5.692;2023-02-28T09:29:27;50.33;;;12.38;;
42832;SDS011;64089;51.478;5.692;2023-02-28T09:31:53;50.58;;;18.50;;
42832;SDS011;64089;51.478;5.692;2023-02-28T09:34:21;3.55;;;1.60;;
42832;SDS011;64089;51.478;5.692;2023-02-28T09:36:46;3.45;;;1.40;;
42832;SDS011;64089;51.478;5.692;2023-02-28T09:39:13;5.25;;;1.60;;
42832;SDS011;64089;51.478;5.692;2023-02-28T09:41:44;4.35;;;1.70;;
42832;SDS011;64089;51.478;5.692;2023-02-28T09:44:31;2.28;;;1.30;;
42832;SDS011;64089;51.478;5.692;2023-02-28T09:47:14;7.47;;;2.80;;
42832;SDS011;64089;51.478;5.692;2023-02-28T09:50:50;5.55;;;2.03;;
42832;SDS011;64089;51.478;5.692;2023-02-28T09:53:04;5.03;;;1.83;;
42832;SDS011;64089;51.478;5.692;2023-02-28T09:55:42;2.67;;;1.55;;
42832;SDS011;64089;51.478;5.692;2023-02-28T09:58:20;4.72;;;2.08;;
42832;SDS011;64089;51.478;5.692;2023-02-28T10:00:56;3.00;;;1.25;;
42832;SDS011;64089;51.478;5.692;2023-02-28T10:03:55;1.45;;;1.23;;
42832;SDS011;64089;51.478;5.692;2023-02-28T10:06:26;9.18;;;1.50;;
42832;SDS011;64089;51.478;5.692;2023-02-28T10:11:29;6.60;;;2.25;;
42832;SDS011;64089;51.478;5.692;2023-02-28T10:14:01;4.20;;;1.73;;
42832;SDS011;64089;51.478;5.692;2023-02-28T10:16:35;2.92;;;1.60;;
42832;SDS011;64089;51.478;5.692;2023-02-28T10:19:10;2.50;;;1.10;;
42832;SDS011;64089;51.478;5.692;2023-02-28T10:21:47;1.92;;;1.50;;
42832;SDS011;64089;51.478;5.692;2023-02-28T10:27:29;2.65;;;1.40;;
42832;SDS011;64089;51.478;5.692;2023-02-28T10:29:56;2.10;;;1.45;;
42832;SDS011;64089;51.478;5.692;2023-02-28T10:32:27;3.08;;;1.40;;
42832;SDS011;64089;51.478;5.692;2023-02-28T10:35:09;3.50;;;1.42;;
42832;SDS011;64089;51.478;5.692;2023-02-28T10:37:45;3.58;;;1.27;;
42832;SDS011;64089;51.478;5.692;2023-02-28T10:42:54;2.47;;;1.33;;
42832;SDS011;64089;51.478;5.692;2023-02-28T10:46:29;3.65;;;1.55;;
42832;SDS011;64089;51.478;5.692;2023-02-28T10:51:15;4.93;;;1.10;;
42832;SDS011;64089;51.478;5.692;2023-02-28T11:03:49;2.70;;;1.27;;
42832;SDS011;64089;51.478;5.692;2023-02-28T11:06:20;3.15;;;1.50;;
42832;SDS011;64089;51.478;5.692;2023-02-28T11:11:16;2.83;;;1.42;;
42832;SDS011;64089;51.478;5.692;2023-02-28T11:13:42;6.57;;;1.33;;
42832;SDS011;64089;51.478;5.692;2023-02-28T11:16:10;2.38;;;1.33;;
42832;SDS011;64089;51.478;5.692;2023-02-28T11:18:50;3.22;;;1.20;;
42832;SDS011;64089;51.478;5.692;2023-02-28T11:21:36;2.80;;;1.65;;
42832;SDS011;64089;51.478;5.692;2023-02-28T11:26:38;2.03;;;1.20;;
42832;SDS011;64089;51.478;5.692;2023-02-28T11:29:11;3.65;;;1.73;;
42832;SDS011;64089;51.478;5.692;2023-02-28T11:31:36;1.98;;;1.30;;
42832;SDS011;64089;51.478;5.692;2023-02-28T11:34:07;2.20;;;1.50;;
42832;SDS011;64089;51.478;5.692;2023-02-28T11:36:49;3.05;;;1.67;;
42832;SDS011;64089;51.478;5.692;2023-02-28T11:39:15;6.07;;;1.58;;
42832;SDS011;64089;51.478;5.692;2023-02-28T11:47:44;45.50;;;20.52;;
42832;SDS011;64089;51.478;5.692;2023-02-28T11:50:20;17.60;;;7.45;;
42832;SDS011;64089;51.478;5.692;2023-02-28T11:52:56;7.45;;;3.97;;
42832;SDS011;64089;51.478;5.692;2023-02-28T11:55:35;2.75;;;1.80;;
42832;SDS011;64089;51.478;5.692;2023-02-28T12:03:42;3.40;;;1.90;;
42832;SDS011;64089;51.478;5.692;2023-02-28T12:11:45;3.50;;;1.90;;
42832;SDS011;64089;51.478;5.692;2023-02-28T12:16:49;3.92;;;1.60;;
42832;SDS011;64089;51.478;5.692;2023-02-28T12:20:00;4.28;;;1.63;;
42832;SDS011;64089;51.478;5.692;2023-02-28T12:27:33;2.95;;;1.70;;
42832;SDS011;64089;51.478;5.692;2023-02-28T12:30:05;2.90;;;1.60;;
42832;SDS011;64089;51.478;5.692;2023-02-28T12:32:47;7.13;;;1.52;;
42832;SDS011;64089;51.478;5.692;2023-02-28T12:35:19;1.50;;;1.40;;
42832;SDS011;64089;51.478;5.692;2023-02-28T12:40:41;2.05;;;1.75;;
42832;SDS011;64089;51.478;5.692;2023-02-28T12:43:17;3.53;;;1.90;;
42832;SDS011;64089;51.478;5.692;2023-02-28T12:48:24;2.40;;;1.67;;
42832;SDS011;64089;51.478;5.692;2023-02-28T12:50:55;2.42;;;1.90;;
42832;SDS011;64089;51.478;5.692;2023-02-28T12:56:12;4.45;;;1.60;;
42832;SDS011;64089;51.478;5.692;2023-02-28T12:59:20;15.80;;;2.13;;
42832;SDS011;64089;51.478;5.692;2023-02-28T13:10:03;2.72;;;1.70;;
42832;SDS011;64089;51.478;5.692;2023-02-28T13:12:31;2.40;;;1.52;;
42832;SDS011;64089;51.478;5.692;2023-02-28T13:15:08;2.40;;;1.40;;
42832;SDS011;64089;51.478;5.692;2023-02-28T13:17:49;5.72;;;1.48;;
42832;SDS011;64089;51.478;5.692;2023-02-28T13:20:21;3.13;;;1.40;;
42832;SDS011;64089;51.478;5.692;2023-02-28T13:22:51;17.70;;;1.98;;
42832;SDS011;64089;51.478;5.692;2023-02-28T13:28:07;2.90;;;1.58;;
42832;SDS011;64089;51.478;5.692;2023-02-28T13:33:26;5.82;;;1.60;;
42832;SDS011;64089;51.478;5.692;2023-02-28T13:36:34;3.42;;;2.05;;
42832;SDS011;64089;51.478;5.692;2023-02-28T13:38:48;2.97;;;1.50;;
42832;SDS011;64089;51.478;5.692;2023-02-28T13:46:31;4.18;;;1.70;;
42832;SDS011;64089;51.478;5.692;2023-02-28T14:11:43;4.50;;;2.35;;
42832;SDS011;64089;51.478;5.692;2023-02-28T14:14:53;7.00;;;2.53;;
42832;SDS011;64089;51.478;5.692;2023-02-28T14:16:59;3.97;;;2.75;;
42832;SDS011;64089;51.478;5.692;2023-02-28T14:19:27;11.63;;;2.60;;
42832;SDS011;64089;51.478;5.692;2023-02-28T14:27:45;6.35;;;2.50;;
42832;SDS011;64089;51.478;5.692;2023-02-28T14:36:26;4.97;;;2.55;;
42832;SDS011;64089;51.478;5.692;2023-02-28T14:38:57;2.80;;;1.75;;
42832;SDS011;64089;51.478;5.692;2023-02-28T14:41:36;5.53;;;2.13;;
42832;SDS011;64089;51.478;5.692;2023-02-28T14:44:15;6.95;;;2.83;;
42832;SDS011;64089;51.478;5.692;2023-02-28T14:46:47;2.88;;;2.00;;
42832;SDS011;64089;51.478;5.692;2023-02-28T14:49:41;3.60;;;2.08;;
42832;SDS011;64089;51.478;5.692;2023-02-28T14:54:54;3.72;;;2.30;;
42832;SDS011;64089;51.478;5.692;2023-02-28T14:57:23;3.83;;;1.70;;
42832;SDS011;64089;51.478;5.692;2023-02-28T15:00:24;3.00;;;2.03;;
42832;SDS011;64089;51.478;5.692;2023-02-28T15:02:52;4.00;;;1.73;;
42832;SDS011;64089;51.478;5.692;2023-02-28T15:05:22;2.58;;;1.70;;
42832;SDS011;64089;51.478;5.692;2023-02-28T15:10:30;2.78;;;1.73;;
42832;SDS011;64089;51.478;5.692;2023-02-28T15:13:06;2.58;;;1.70;;
42832;SDS011;64089;51.478;5.692;2023-02-28T15:17:59;3.22;;;2.13;;
42832;SDS011;64089;51.478;5.692;2023-02-28T15:20:25;5.18;;;1.67;;
42832;SDS011;64089;51.478;5.692;2023-02-28T15:22:51;3.08;;;2.20;;
42832;SDS011;64089;51.478;5.692;2023-02-28T15:25:21;5.45;;;2.58;;
42832;SDS011;64089;51.478;5.692;2023-02-28T15:27:49;4.28;;;2.03;;
42832;SDS011;64089;51.478;5.692;2023-02-28T15:30:19;2.17;;;1.90;;
42832;SDS011;64089;51.478;5.692;2023-02-28T15:35:36;3.80;;;2.30;;
42832;SDS011;64089;51.478;5.692;2023-02-28T15:38:21;9.38;;;2.20;;
42832;SDS011;64089;51.478;5.692;2023-02-28T15:40:55;5.70;;;2.53;;
42832;SDS011;64089;51.478;5.692;2023-02-28T15:43:29;2.72;;;1.95;;
42832;SDS011;64089;51.478;5.692;2023-02-28T15:46:09;2.65;;;2.28;;
42832;SDS011;64089;51.478;5.692;2023-02-28T15:48:37;9.15;;;2.10;;
42832;SDS011;64089;51.478;5.692;2023-02-28T15:53:54;7.55;;;2.40;;
42832;SDS011;64089;51.478;5.692;2023-02-28T15:56:30;4.13;;;2.22;;
42832;SDS011;64089;51.478;5.692;2023-02-28T15:58:59;3.22;;;1.90;;
42832;SDS011;64089;51.478;5.692;2023-02-28T16:01:35;2.28;;;1.70;;
42832;SDS011;64089;51.478;5.692;2023-02-28T16:04:06;2.17;;;1.73;;
42832;SDS011;64089;51.478;5.692;2023-02-28T16:09:25;5.00;;;1.77;;
42832;SDS011;64089;51.478;5.692;2023-02-28T16:11:54;4.10;;;1.80;;
42832;SDS011;64089;51.478;5.692;2023-02-28T16:14:22;2.45;;;1.90;;
42832;SDS011;64089;51.478;5.692;2023-02-28T16:16:53;3.85;;;2.08;;
42832;SDS011;64089;51.478;5.692;2023-02-28T16:19:23;2.70;;;1.90;;
42832;SDS011;64089;51.478;5.692;2023-02-28T16:21:49;5.28;;;1.92;;
42832;SDS011;64089;51.478;5.692;2023-02-28T16:24:14;2.15;;;1.73;;
42832;SDS011;64089;51.478;5.692;2023-02-28T16:26:40;6.63;;;2.17;;
42832;SDS011;64089;51.478;5.692;2023-02-28T16:29:12;3.78;;;1.98;;
42832;SDS011;64089;51.478;5.692;2023-02-28T16:31:43;3.47;;;1.90;;
42832;SDS011;64089;51.478;5.692;2023-02-28T16:34:09;2.10;;;1.67;;
42832;SDS011;64089;51.478;5.692;2023-02-28T16:36:34;2.83;;;2.03;;
42832;SDS011;64089;51.478;5.692;2023-02-28T16:39:00;2.70;;;1.90;;
42832;SDS011;64089;51.478;5.692;2023-02-28T16:41:27;5.40;;;2.33;;
42832;SDS011;64089;51.478;5.692;2023-02-28T16:43:54;4.00;;;2.33;;
42832;SDS011;64089;51.478;5.692;2023-02-28T16:46:30;2.80;;;2.20;;
42832;SDS011;64089;51.478;5.692;2023-02-28T16:48:58;3.75;;;1.90;;
42832;SDS011;64089;51.478;5.692;2023-02-28T16:51:23;2.53;;;1.83;;
42832;SDS011;64089;51.478;5.692;2023-02-28T16:53:49;3.42;;;2.33;;
42832;SDS011;64089;51.478;5.692;2023-02-28T16:56:18;3.13;;;1.80;;
42832;SDS011;64089;51.478;5.692;2023-02-28T16:58:46;3.88;;;2.03;;
42832;SDS011;64089;51.478;5.692;2023-02-28T17:01:13;2.22;;;1.88;;
42832;SDS011;64089;51.478;5.692;2023-02-28T17:03:38;4.43;;;2.17;;
42832;SDS011;64089;51.478;5.692;2023-02-28T17:06:05;3.13;;;2.03;;
42832;SDS011;64089;51.478;5.692;2023-02-28T17:08:37;5.78;;;2.25;;
42832;SDS011;64089;51.478;5.692;2023-02-28T17:11:03;3.38;;;2.00;;
42832;SDS011;64089;51.478;5.692;2023-02-28T17:13:29;2.85;;;1.73;;
42832;SDS011;64089;51.478;5.692;2023-02-28T17:15:54;3.72;;;2.20;;
42832;SDS011;64089;51.478;5.692;2023-02-28T17:18:20;3.45;;;2.03;;
42832;SDS011;64089;51.478;5.692;2023-02-28T17:20:46;3.65;;;2.00;;
42832;SDS011;64089;51.478;5.692;2023-02-28T17:23:12;5.30;;;2.53;;
42832;SDS011;64089;51.478;5.692;2023-02-28T17:25:38;4.03;;;2.38;;
42832;SDS011;64089;51.478;5.692;2023-02-28T17:28:04;6.22;;;2.53;;
42832;SDS011;64089;51.478;5.692;2023-02-28T17:30:31;3.42;;;2.58;;
42832;SDS011;64089;51.478;5.692;2023-02-28T17:32:59;3.25;;;2.30;;
42832;SDS011;64089;51.478;5.692;2023-02-28T17:35:25;6.13;;;2.05;;
42832;SDS011;64089;51.478;5.692;2023-02-28T17:37:54;4.53;;;2.50;;
42832;SDS011;64089;51.478;5.692;2023-02-28T17:40:20;6.32;;;2.72;;
42832;SDS011;64089;51.478;5.692;2023-02-28T17:42:47;6.90;;;2.38;;